Time;durP1;ratioP1;P1;durP2;ratioP2;P2;SDS_P1;SDS_P2;PMS_P1;PMS_P2;Temp;Humidity;BMP_temperature;BMP_pressure;BME280_temperature;BME280_humidity;BME280_pressure;Samples;Min_cycle;Max_cycle;Signal;HPM_P1;HPM_P2
2021/12/28 00:00:21;;;;;;;17.85;7.47;;;;;;;3.97;98.99;92643.78;4801932;29;20043;-66
2021/12/28 00:02:49;;;;;;;16.13;6.33;;;;;;;3.98;98.51;92639.13;4812281;29;20069;-67
2021/12/28 00:05:17;;;;;;;16.50;6.07;;;;;;;3.95;97.84;92635.28;4809351;29;20404;-66
2021/12/28 00:07:46;;;;;;;13.88;5.60;;;;;;;3.91;98.31;92629.13;4838335;29;20405;-66
2021/12/28 00:10:16;;;;;;;12.65;5.32;;;;;;;3.85;97.51;92630.72;4838203;29;20064;-66
2021/12/28 00:12:43;;;;;;;13.82;5.05;;;;;;;3.70;98.26;92627.41;4838579;29;20052;-66
2021/12/28 00:15:31;;;;;;;16.10;5.47;;;;;;;3.65;98.44;92627.06;4838116;29;20057;-66
2021/12/28 00:18:02;;;;;;;18.23;5.63;;;;;;;3.49;98.49;92631.09;4838885;29;20049;-66
2021/12/28 00:20:37;;;;;;;12.00;4.90;;;;;;;3.48;98.56;92624.13;4837970;29;20053;-67
2021/12/28 00:23:07;;;;;;;10.02;4.13;;;;;;;3.45;97.98;92622.22;4838544;29;20038;-67
2021/12/28 00:25:34;;;;;;;14.57;4.85;;;;;;;3.44;99.23;92622.59;4837585;29;20213;-66
2021/12/28 00:28:03;;;;;;;13.80;4.03;;;;;;;3.47;99.21;92622.59;4838730;29;20054;-67
2021/12/28 00:30:29;;;;;;;16.98;4.72;;;;;;;3.45;99.39;92633.06;4837174;29;20876;-68
2021/12/28 00:32:57;;;;;;;22.77;6.40;;;;;;;3.41;99.80;92624.19;4838535;29;20053;-67
2021/12/28 00:35:27;;;;;;;28.27;6.85;;;;;;;3.44;99.86;92628.03;4837774;29;20057;-67
2021/12/28 00:37:54;;;;;;;11.82;4.38;;;;;;;3.40;99.67;92626.13;4838552;29;20046;-67
2021/12/28 00:40:22;;;;;;;12.80;4.37;;;;;;;3.46;100.00;92618.34;4838040;29;20529;-66
2021/12/28 00:42:50;;;;;;;11.10;4.25;;;;;;;3.49;100.00;92619.47;4838606;29;20044;-66
2021/12/28 00:45:17;;;;;;;14.07;5.15;;;;;;;3.60;100.00;92609.28;4852057;29;20068;-66
2021/12/28 00:47:44;;;;;;;13.57;5.30;;;;;;;3.68;99.72;92607.25;4838307;29;20053;-67
2021/12/28 00:50:13;;;;;;;22.80;6.47;;;;;;;3.67;98.95;92600.31;4837847;29;20113;-66
2021/12/28 00:52:41;;;;;;;18.17;6.60;;;;;;;3.62;98.11;92589.88;4837971;29;20057;-67
2021/12/28 00:55:10;;;;;;;15.00;4.35;;;;;;;3.46;98.14;92591.22;4837977;29;20432;-66
2021/12/28 00:57:37;;;;;;;9.85;3.53;;;;;;;3.22;98.17;92587.56;4837925;29;20046;-66
2021/12/28 01:00:08;;;;;;;12.18;3.60;;;;;;;3.12;97.66;92585.72;4839381;29;20053;-67
2021/12/28 01:02:35;;;;;;;12.23;3.53;;;;;;;2.99;97.39;92583.50;4812761;29;20918;-68
2021/12/28 01:05:04;;;;;;;9.47;3.50;;;;;;;2.91;97.77;92573.88;4815768;29;20051;-67
2021/12/28 01:07:31;;;;;;;9.82;3.67;;;;;;;2.80;97.75;92576.69;4819259;29;20744;-67
2021/12/28 01:09:58;;;;;;;8.80;3.58;;;;;;;2.64;98.51;92581.84;4823066;29;20461;-67
2021/12/28 01:12:25;;;;;;;11.95;4.70;;;;;;;2.70;98.55;92576.78;4822762;29;20050;-66
2021/12/28 01:14:52;;;;;;;57.03;26.70;;;;;;;2.78;97.99;92576.31;4821693;29;20053;-66
2021/12/28 01:17:18;;;;;;;11.77;4.17;;;;;;;2.78;98.23;92575.56;4836472;29;20477;-66
2021/12/28 01:19:45;;;;;;;11.30;3.90;;;;;;;2.82;97.89;92573.59;4822700;29;20080;-66
2021/12/28 01:22:12;;;;;;;10.60;3.65;;;;;;;2.84;97.75;92565.81;4822195;29;20050;-66
2021/12/28 01:24:39;;;;;;;9.98;3.70;;;;;;;2.80;97.92;92565.09;4822497;29;20042;-66
2021/12/28 01:27:06;;;;;;;9.30;3.40;;;;;;;2.80;97.51;92560.44;4822439;29;20051;-66
2021/12/28 01:29:33;;;;;;;9.50;3.50;;;;;;;2.83;97.50;92558.09;4822413;29;20499;-66
2021/12/28 01:32:00;;;;;;;11.95;4.68;;;;;;;2.91;97.75;92559.56;4835669;29;20409;-67
2021/12/28 01:34:27;;;;;;;14.07;5.78;;;;;;;2.97;98.07;92544.41;4840416;29;20149;-67
2021/12/28 01:36:54;;;;;;;11.65;4.90;;;;;;;2.96;98.11;92540.19;4841031;29;20072;-67
2021/12/28 01:39:20;;;;;;;11.82;4.20;;;;;;;2.94;98.23;92537.09;4840429;29;20054;-66
2021/12/28 01:41:47;;;;;;;9.47;3.97;;;;;;;3.02;98.24;92537.78;4840591;29;20062;-66
2021/12/28 01:44:14;;;;;;;14.45;4.35;;;;;;;3.08;98.20;92544.31;4840273;29;20119;-66
2021/12/28 01:46:41;;;;;;;11.77;4.60;;;;;;;3.11;98.90;92546.22;4840663;29;20046;-67
2021/12/28 01:49:09;;;;;;;15.50;5.88;;;;;;;3.18;99.44;92536.09;4840377;29;20129;-66
2021/12/28 01:51:37;;;;;;;15.98;6.18;;;;;;;3.29;99.35;92527.09;4840427;29;20054;-66
2021/12/28 01:54:05;;;;;;;14.73;6.10;;;;;;;3.29;98.72;92521.66;4840852;29;20046;-67
2021/12/28 01:56:40;;;;;;;12.82;5.68;;;;;;;3.29;98.93;92527.84;4839487;29;20913;-67
2021/12/28 01:59:09;;;;;;;15.98;6.07;;;;;;;3.29;99.27;92517.00;4840005;29;20052;-66
2021/12/28 02:01:37;;;;;;;17.30;6.63;;;;;;;3.28;99.87;92520.09;4829878;29;20042;-66
2021/12/28 02:04:25;;;;;;;16.63;7.53;;;;;;;3.42;99.30;92516.47;4805802;29;20043;-67
2021/12/28 02:06:55;;;;;;;14.07;6.73;;;;;;;3.45;99.28;92521.88;4830190;29;20943;-68
2021/12/28 02:09:22;;;;;;;16.58;6.43;;;;;;;3.43;99.39;92518.03;4839975;29;20053;-66
2021/12/28 02:11:48;;;;;;;13.73;6.32;;;;;;;3.45;98.70;92507.56;4840286;29;20054;-67
2021/12/28 02:14:15;;;;;;;12.98;5.90;;;;;;;3.45;99.14;92504.84;4839692;29;20461;-66
2021/12/28 02:16:44;;;;;;;12.30;5.68;;;;;;;3.39;98.79;92499.84;4840085;29;20046;-66
2021/12/28 02:19:12;;;;;;;12.40;5.83;;;;;;;3.38;98.96;92502.94;4839097;29;20061;-66
2021/12/28 02:21:40;;;;;;;16.73;6.78;;;;;;;3.37;98.87;92490.59;4839805;29;20046;-66
2021/12/28 02:24:08;;;;;;;15.68;6.72;;;;;;;3.07;97.92;92486.63;4839932;29;20121;-66
2021/12/28 02:26:36;;;;;;;13.43;6.57;;;;;;;3.22;98.62;92484.56;4839961;29;20038;-67
2021/12/28 02:29:05;;;;;;;17.30;7.50;;;;;;;3.18;98.72;92476.47;4839854;29;20042;-66
2021/12/28 02:31:35;;;;;;;16.83;6.90;;;;;;;3.23;98.81;92471.78;4838876;29;20763;-66
2021/12/28 02:34:04;;;;;;;15.15;6.72;;;;;;;3.18;99.53;92479.16;4840225;29;20042;-67
2021/12/28 02:36:31;;;;;;;16.20;6.82;;;;;;;3.29;99.39;92475.56;4853077;29;20041;-66
2021/12/28 02:38:58;;;;;;;14.73;6.38;;;;;;;3.27;99.49;92478.69;4838760;29;20049;-66
2021/12/28 02:41:25;;;;;;;14.40;6.88;;;;;;;3.34;100.00;92473.19;4839412;29;20049;-67
2021/12/28 02:43:59;;;;;;;13.87;6.50;;;;;;;3.34;100.00;92466.97;4839553;29;20044;-67
2021/12/28 02:46:26;;;;;;;13.55;6.45;;;;;;;3.38;99.79;92465.00;4839616;29;20381;-66
2021/12/28 02:48:53;;;;;;;14.73;6.35;;;;;;;3.39;99.90;92453.75;4840020;29;20408;-67
2021/12/28 02:51:20;;;;;;;12.98;5.80;;;;;;;3.46;100.00;92447.50;4839016;29;20054;-67
2021/12/28 02:53:47;;;;;;;15.20;6.18;;;;;;;3.46;100.00;92452.91;4839503;29;20073;-67
2021/12/28 02:56:18;;;;;;;12.63;6.20;;;;;;;3.43;100.00;92444.81;4839118;29;20045;-67
2021/12/28 02:58:49;;;;;;;15.23;6.55;;;;;;;3.44;100.00;92432.78;4839168;29;20046;-66
2021/12/28 03:01:24;;;;;;;14.77;6.45;;;;;;;3.51;100.00;92436.16;4833056;29;20458;-66
2021/12/28 03:03:58;;;;;;;14.88;6.40;;;;;;;3.52;100.00;92434.22;4808637;29;20408;-66
2021/12/28 03:06:25;;;;;;;15.05;6.35;;;;;;;3.47;100.00;92440.88;4822805;29;20058;-67
2021/12/28 03:08:55;;;;;;;14.37;6.77;;;;;;;3.43;100.00;92447.53;4839073;29;20050;-67
2021/12/28 03:11:24;;;;;;;13.32;6.20;;;;;;;3.43;100.00;92445.56;4853094;29;20064;-66
2021/12/28 03:13:54;;;;;;;14.55;6.65;;;;;;;3.48;100.00;92441.63;4839252;29;20052;-67
2021/12/28 03:16:22;;;;;;;17.13;6.53;;;;;;;3.49;100.00;92435.06;4838869;29;20048;-66
2021/12/28 03:18:49;;;;;;;12.88;6.25;;;;;;;3.56;100.00;92437.66;4839167;29;20050;-66
2021/12/28 03:21:19;;;;;;;13.73;6.70;;;;;;;3.58;100.00;92436.09;4838741;29;20520;-66
2021/12/28 03:23:46;;;;;;;15.02;7.03;;;;;;;3.58;100.00;92436.09;4838695;29;20046;-66
2021/12/28 03:26:14;;;;;;;16.52;7.00;;;;;;;3.62;100.00;92429.84;4838705;29;20034;-66
2021/12/28 03:28:43;;;;;;;19.83;7.80;;;;;;;3.60;100.00;92438.38;4839008;29;20411;-66
2021/12/28 03:31:13;;;;;;;16.92;7.78;;;;;;;3.63;100.00;92432.16;4838273;29;20046;-66
2021/12/28 03:33:43;;;;;;;19.33;8.50;;;;;;;3.65;100.00;92429.03;4838964;29;20101;-67
2021/12/28 03:36:10;;;;;;;18.90;8.15;;;;;;;3.67;100.00;92422.03;4838395;29;20054;-66
2021/12/28 03:38:40;;;;;;;18.30;8.07;;;;;;;3.66;100.00;92417.75;4838862;29;20050;-67
2021/12/28 03:41:08;;;;;;;17.98;7.82;;;;;;;3.61;100.00;92418.22;4838488;29;20065;-66
2021/12/28 03:43:37;;;;;;;18.80;8.25;;;;;;;3.63;100.00;92423.25;4838930;29;20042;-66
2021/12/28 03:46:05;;;;;;;17.33;8.20;;;;;;;3.67;100.00;92429.41;4838627;29;20045;-67
2021/12/28 03:48:32;;;;;;;21.50;8.95;;;;;;;3.68;100.00;92422.78;4838085;29;21794;-66
2021/12/28 03:51:00;;;;;;;19.35;8.57;;;;;;;3.62;100.00;92417.03;4838889;29;20054;-66
2021/12/28 03:53:27;;;;;;;17.20;8.25;;;;;;;3.64;100.00;92422.06;4838537;29;20488;-66
2021/12/28 03:55:53;;;;;;;19.98;7.85;;;;;;;3.67;100.00;92410.41;4838632;29;20068;-66
2021/12/28 03:58:20;;;;;;;17.23;7.97;;;;;;;3.68;100.00;92414.63;4838193;29;20054;-66
2021/12/28 04:00:48;;;;;;;26.30;9.50;;;;;;;3.70;100.00;92415.78;4838552;29;20064;-67
2021/12/28 04:03:16;;;;;;;21.48;9.00;;;;;;;3.70;100.00;92413.06;4838348;29;20057;-66
2021/12/28 04:05:45;;;;;;;23.80;9.57;;;;;;;3.74;100.00;92404.88;4838587;29;20064;-67
2021/12/28 04:08:16;;;;;;;19.55;8.90;;;;;;;3.77;100.00;92387.78;4838435;29;20046;-67
2021/12/28 04:10:52;;;;;;;18.93;8.63;;;;;;;3.79;100.00;92380.75;4838442;29;20044;-66
2021/12/28 04:13:21;;;;;;;26.48;9.93;;;;;;;3.83;100.00;92375.28;4838266;29;20048;-67
2021/12/28 04:15:49;;;;;;;21.38;8.40;;;;;;;3.83;100.00;92379.94;4838371;29;20053;-66
2021/12/28 04:18:18;;;;;;;18.83;8.02;;;;;;;3.83;100.00;92371.81;4838390;29;20098;-67
2021/12/28 04:20:45;;;;;;;17.73;8.95;;;;;;;3.86;100.00;92371.75;4838358;29;20117;-67
2021/12/28 04:23:12;;;;;;;19.77;8.97;;;;;;;3.91;100.00;92389.53;4838378;29;20050;-66
2021/12/28 04:25:39;;;;;;;21.38;9.48;;;;;;;3.99;100.00;92374.66;4837987;29;20045;-67
2021/12/28 04:28:06;;;;;;;23.40;9.48;;;;;;;3.93;100.00;92387.94;4838196;29;20419;-66
2021/12/28 04:30:33;;;;;;;20.35;8.75;;;;;;;3.93;100.00;92384.44;4838590;29;20050;-66
2021/12/28 04:32:59;;;;;;;14.48;7.07;;;;;;;3.92;100.00;92380.94;4838435;29;20046;-67
2021/12/28 04:35:26;;;;;;;16.20;7.67;;;;;;;3.93;100.00;92381.75;4838395;29;20105;-66
2021/12/28 04:37:53;;;;;;;12.40;6.45;;;;;;;3.91;100.00;92382.13;4838260;29;20046;-66
2021/12/28 04:40:20;;;;;;;23.40;8.80;;;;;;;3.93;100.00;92377.06;4838081;29;20080;-67
2021/12/28 04:42:46;;;;;;;30.77;9.65;;;;;;;3.95;100.00;92379.38;4853620;29;20042;-66
2021/12/28 04:45:15;;;;;;;33.20;9.70;;;;;;;3.93;100.00;92377.06;4855817;29;20097;-67
2021/12/28 04:47:43;;;;;;;15.67;7.20;;;;;;;3.97;100.00;92358.78;4841828;29;20046;-66
2021/12/28 04:50:11;;;;;;;18.23;7.75;;;;;;;4.00;100.00;92363.41;4841734;29;20086;-66
2021/12/28 04:52:40;;;;;;;13.18;6.40;;;;;;;4.03;99.86;92361.81;4841790;29;20054;-67
2021/12/28 04:55:13;;;;;;;15.27;6.75;;;;;;;4.06;100.00;92360.97;4841356;29;20048;-66
2021/12/28 04:57:41;;;;;;;12.52;5.90;;;;;;;4.06;100.00;92360.19;4841609;29;20062;-67
2021/12/28 05:00:14;;;;;;;13.30;6.93;;;;;;;4.02;100.00;92354.81;4841291;29;20129;-66
2021/12/28 05:02:41;;;;;;;12.93;6.40;;;;;;;4.04;100.00;92354.41;4841805;29;20038;-67
2021/12/28 05:05:11;;;;;;;11.57;6.07;;;;;;;4.09;99.71;92359.41;4840331;29;20510;-66
2021/12/28 05:07:39;;;;;;;15.02;7.30;;;;;;;4.13;100.00;92343.81;4842169;29;20090;-67
2021/12/28 05:10:07;;;;;;;11.68;6.30;;;;;;;4.15;99.86;92346.88;4840986;29;20053;-66
2021/12/28 05:12:33;;;;;;;12.07;5.63;;;;;;;4.14;100.00;92346.09;4840420;29;20053;-66
2021/12/28 05:15:00;;;;;;;10.02;5.35;;;;;;;4.16;99.39;92334.81;4841440;29;20062;-66
2021/12/28 05:17:28;;;;;;;16.45;8.07;;;;;;;4.23;99.74;92342.88;4839758;29;20072;-66
2021/12/28 05:19:55;;;;;;;8.30;4.88;;;;;;;4.26;99.30;92354.84;4841380;29;20049;-67
2021/12/28 05:22:22;;;;;;;9.18;4.97;;;;;;;4.29;99.22;92351.31;4841190;29;20050;-67
2021/12/28 05:24:49;;;;;;;12.27;5.63;;;;;;;4.31;98.86;92348.94;4841132;29;20052;-67
2021/12/28 05:27:16;;;;;;;9.57;4.45;;;;;;;4.39;98.53;92361.22;4840790;29;20074;-67
2021/12/28 05:29:43;;;;;;;9.18;4.57;;;;;;;4.43;97.63;92359.22;4840897;29;20037;-67
2021/12/28 05:32:09;;;;;;;9.63;4.00;;;;;;;4.50;96.88;92353.63;4825254;29;20050;-66
2021/12/28 05:34:36;;;;;;;7.63;3.35;;;;;;;4.62;96.05;92357.72;4814287;29;20042;-67
2021/12/28 05:37:03;;;;;;;7.97;2.83;;;;;;;4.72;95.46;92355.97;4823201;29;20049;-67
2021/12/28 05:39:30;;;;;;;4.45;2.20;;;;;;;4.74;95.37;92359.81;4821977;29;20926;-68
2021/12/28 05:41:57;;;;;;;6.53;3.38;;;;;;;4.74;95.52;92359.03;4823534;29;20054;-68
2021/12/28 05:44:24;;;;;;;5.10;1.80;;;;;;;4.82;94.12;92363.16;4837281;29;20555;-68
2021/12/28 05:46:51;;;;;;;3.90;1.83;;;;;;;4.84;94.48;92360.03;4823371;29;20042;-67
2021/12/28 05:49:18;;;;;;;4.30;1.77;;;;;;;4.78;95.29;92360.50;4822882;29;20046;-67
2021/12/28 05:51:46;;;;;;;2.83;1.50;;;;;;;4.83;94.47;92361.22;4822371;29;20519;-67
2021/12/28 05:54:13;;;;;;;3.75;1.60;;;;;;;4.80;94.82;92354.66;4820932;29;20039;-67
2021/12/28 05:56:39;;;;;;;3.28;1.50;;;;;;;4.82;94.35;92360.44;4822372;29;20050;-67
2021/12/28 05:59:07;;;;;;;3.10;1.30;;;;;;;4.87;93.31;92351.03;4821692;29;20053;-66
2021/12/28 06:01:33;;;;;;;3.23;1.20;;;;;;;4.87;93.46;92354.53;4822390;29;20050;-67
2021/12/28 06:04:01;;;;;;;2.50;1.10;;;;;;;4.88;92.98;92347.16;4822379;29;20338;-67
2021/12/28 06:06:27;;;;;;;2.45;1.13;;;;;;;4.95;92.25;92368.75;4831262;29;20531;-66
2021/12/28 06:08:57;;;;;;;3.25;1.10;;;;;;;4.94;92.75;92369.94;4840430;29;20056;-66
2021/12/28 06:11:24;;;;;;;3.28;1.30;;;;;;;4.96;92.16;92371.03;4840157;29;20056;-66
2021/12/28 06:13:51;;;;;;;2.90;1.33;;;;;;;4.99;91.79;92388.50;4840516;29;20086;-66
2021/12/28 06:16:18;;;;;;;5.28;2.10;;;;;;;5.07;90.72;92387.16;4854184;29;20050;-66
2021/12/28 06:18:45;;;;;;;3.15;1.30;;;;;;;5.04;91.13;92385.28;4840385;29;20046;-67
2021/12/28 06:21:12;;;;;;;7.53;3.70;;;;;;;5.02;92.30;92397.75;4839995;29;20050;-66
2021/12/28 06:23:39;;;;;;;2.10;1.05;;;;;;;5.02;91.37;92389.59;4854110;29;20052;-66
2021/12/28 06:26:06;;;;;;;2.87;1.30;;;;;;;5.02;91.77;92384.94;4839665;29;20046;-65
2021/12/28 06:28:33;;;;;;;2.45;1.10;;;;;;;5.00;92.12;92404.38;4840352;29;20056;-66
2021/12/28 06:31:00;;;;;;;2.40;1.30;;;;;;;5.00;91.79;92390.78;4840223;29;20042;-67
2021/12/28 06:33:27;;;;;;;2.50;1.10;;;;;;;4.99;92.54;92393.94;4839888;29;20064;-67
2021/12/28 06:35:54;;;;;;;2.10;0.90;;;;;;;4.94;93.38;92380.81;4839783;29;20046;-67
2021/12/28 06:38:22;;;;;;;2.63;1.00;;;;;;;4.93;94.08;92398.28;4839420;29;20049;-67
2021/12/28 06:40:49;;;;;;;2.67;1.00;;;;;;;4.95;93.31;92393.22;4838497;29;20057;-67
2021/12/28 06:43:16;;;;;;;2.10;0.75;;;;;;;4.92;93.95;92394.06;4839771;29;20068;-67
2021/12/28 06:45:43;;;;;;;2.60;0.90;;;;;;;4.90;93.99;92391.75;4838822;29;20076;-66
2021/12/28 06:48:09;;;;;;;3.03;0.95;;;;;;;4.88;94.69;92390.63;4839339;29;20041;-67
2021/12/28 06:50:36;;;;;;;1.73;0.80;;;;;;;4.85;94.60;92386.03;4839906;29;20050;-67
2021/12/28 06:53:03;;;;;;;1.90;0.90;;;;;;;4.82;95.28;92384.16;4839554;29;20068;-67
2021/12/28 06:55:30;;;;;;;1.90;0.90;;;;;;;4.78;95.53;92382.25;4838870;29;20779;-66
2021/12/28 06:57:57;;;;;;;2.20;0.82;;;;;;;4.78;95.52;92379.53;4839251;29;20050;-66
2021/12/28 07:00:24;;;;;;;2.97;0.90;;;;;;;4.79;96.10;92388.47;4839395;29;20399;-66
2021/12/28 07:02:50;;;;;;;2.83;0.90;;;;;;;4.79;95.81;92385.75;4827389;29;20408;-66
2021/12/28 07:05:17;;;;;;;1.88;0.90;;;;;;;4.83;95.25;92380.22;4821018;29;20052;-66
2021/12/28 07:07:44;;;;;;;2.20;0.90;;;;;;;4.79;96.07;92383.03;4839707;29;20050;-66
2021/12/28 07:10:11;;;;;;;2.10;1.00;;;;;;;4.79;95.77;92374.88;4838954;29;20054;-66
2021/12/28 07:12:38;;;;;;;1.90;0.85;;;;;;;4.84;95.45;92374.38;4853529;29;20042;-66
2021/12/28 07:15:06;;;;;;;1.90;0.83;;;;;;;4.83;95.67;92378.31;4838610;29;20070;-63
2021/12/28 07:17:33;;;;;;;1.98;0.80;;;;;;;4.84;96.09;92384.50;4839507;29;20097;-66
2021/12/28 07:19:59;;;;;;;2.55;1.13;;;;;;;4.82;96.25;92368.59;4839050;29;20054;-67
2021/12/28 07:22:26;;;;;;;1.70;0.70;;;;;;;4.80;96.87;92373.69;4838952;29;20054;-67
2021/12/28 07:24:53;;;;;;;3.38;0.98;;;;;;;4.79;96.75;92370.22;4839016;29;20045;-67
2021/12/28 07:27:20;;;;;;;2.83;0.80;;;;;;;4.80;96.72;92379.88;4837485;29;20054;-66
2021/12/28 07:29:46;;;;;;;2.38;1.25;;;;;;;4.83;96.72;92381.03;4839101;29;20050;-66
2021/12/28 07:32:13;;;;;;;2.30;0.98;;;;;;;4.85;96.22;92377.88;4838284;29;20499;-66
2021/12/28 07:34:40;;;;;;;2.15;1.00;;;;;;;4.84;96.42;92387.97;4838940;29;20064;-66
2021/12/28 07:37:07;;;;;;;4.05;2.10;;;;;;;4.88;95.94;92382.47;4838548;29;20366;-68
2021/12/28 07:39:33;;;;;;;1.87;0.90;;;;;;;4.89;96.38;92379.34;4839002;29;20046;-66
2021/12/28 07:42:00;;;;;;;2.90;1.15;;;;;;;4.95;95.57;92376.91;4822934;29;20045;-67
2021/12/28 07:44:27;;;;;;;2.33;1.17;;;;;;;4.93;96.48;92395.56;4838707;29;20057;-66
2021/12/28 07:46:54;;;;;;;1.90;0.82;;;;;;;4.93;96.37;92384.69;4838561;29;20264;-67
2021/12/28 07:49:21;;;;;;;2.47;0.88;;;;;;;4.89;97.37;92376.63;4838464;29;20154;-66
2021/12/28 07:51:49;;;;;;;2.80;0.70;;;;;;;4.87;98.81;92378.22;4838801;29;20042;-66
2021/12/28 07:54:15;;;;;;;1.88;0.75;;;;;;;4.82;98.96;92384.16;4837454;29;20048;-66
2021/12/28 07:56:42;;;;;;;1.95;0.88;;;;;;;4.80;99.21;92385.31;4838887;29;20038;-67
2021/12/28 07:59:09;;;;;;;1.90;0.85;;;;;;;4.82;98.88;92387.63;4836507;29;20060;-66
2021/12/28 08:01:36;;;;;;;2.67;0.85;;;;;;;4.80;99.03;92392.72;4838909;29;20054;-67
2021/12/28 08:04:03;;;;;;;3.10;1.20;;;;;;;4.80;98.98;92393.47;4838383;29;20042;-67
2021/12/28 08:06:30;;;;;;;2.38;1.10;;;;;;;4.83;98.53;92389.19;4837782;29;20704;-66
2021/12/28 08:08:57;;;;;;;2.63;1.20;;;;;;;4.86;98.71;92390.28;4838613;29;20420;-66
2021/12/28 08:11:25;;;;;;;1.95;0.90;;;;;;;4.87;98.89;92383.66;4838151;29;20052;-67
2021/12/28 08:13:52;;;;;;;3.03;1.13;;;;;;;4.85;99.37;92394.97;4838796;29;20057;-67
2021/12/28 08:16:18;;;;;;;4.33;1.63;;;;;;;4.78;100.00;92401.28;4838319;29;20077;-67
2021/12/28 08:18:46;;;;;;;3.25;1.20;;;;;;;4.88;99.08;92396.06;4855386;29;20041;-67
2021/12/28 08:21:33;;;;;;;3.13;1.25;;;;;;;4.94;99.74;92403.31;4841509;29;20696;-66
2021/12/28 08:24:00;;;;;;;4.20;1.85;;;;;;;4.91;99.72;92409.59;4842124;29;20114;-66
2021/12/28 08:26:27;;;;;;;4.15;1.83;;;;;;;4.93;99.10;92404.53;4842056;29;20141;-66
2021/12/28 08:28:53;;;;;;;3.63;1.60;;;;;;;4.92;99.35;92407.66;4842387;29;20050;-67
2021/12/28 08:31:24;;;;;;;3.28;1.30;;;;;;;4.93;99.40;92411.88;4841934;29;20057;-66
2021/12/28 08:33:51;;;;;;;2.47;1.27;;;;;;;4.98;99.83;92408.69;4840688;29;20061;-66
2021/12/28 08:36:18;;;;;;;2.80;1.27;;;;;;;5.09;99.77;92400.31;4840581;29;20050;-67
2021/12/28 08:38:45;;;;;;;2.08;1.00;;;;;;;5.13;98.94;92404.53;4840755;29;20038;-66
2021/12/28 08:41:12;;;;;;;3.13;1.30;;;;;;;5.14;98.72;92405.28;4841350;29;20423;-66
2021/12/28 08:43:46;;;;;;;3.22;1.20;;;;;;;5.12;99.09;92400.28;4842142;29;20052;-67
2021/12/28 08:46:14;;;;;;;4.22;2.15;;;;;;;5.18;98.84;92401.31;4841488;29;20046;-68
2021/12/28 08:48:41;;;;;;;3.65;1.40;;;;;;;5.25;98.73;92405.88;4841996;29;20419;-67
2021/12/28 08:51:09;;;;;;;3.05;1.60;;;;;;;5.24;98.33;92411.72;4841379;29;20526;-66
2021/12/28 08:53:35;;;;;;;4.70;1.93;;;;;;;5.18;99.05;92403.28;4840708;29;20049;-67
2021/12/28 08:56:03;;;;;;;4.88;2.13;;;;;;;5.24;99.34;92412.47;4840063;29;20282;-66
2021/12/28 08:58:29;;;;;;;5.72;2.63;;;;;;;5.17;99.87;92407.16;4840836;29;20092;-66
2021/12/28 09:00:56;;;;;;;4.28;1.80;;;;;;;5.16;100.00;92408.38;4841613;29;20045;-67
2021/12/28 09:03:23;;;;;;;3.30;1.70;;;;;;;5.20;100.00;92403.63;4839881;29;20050;-66
2021/12/28 09:05:50;;;;;;;3.50;1.70;;;;;;;5.15;100.00;92413.03;4855717;29;20046;-67
2021/12/28 09:08:18;;;;;;;3.60;1.70;;;;;;;5.19;100.00;92410.22;4839940;29;20038;-66
2021/12/28 09:10:46;;;;;;;3.33;2.03;;;;;;;5.23;100.00;92412.88;4841626;29;20058;-67
2021/12/28 09:13:14;;;;;;;2.60;1.45;;;;;;;5.27;99.98;92417.09;4840727;29;20052;-66
2021/12/28 09:15:43;;;;;;;2.95;1.30;;;;;;;5.28;100.00;92402.28;4840172;29;20046;-66
2021/12/28 09:18:10;;;;;;;3.40;1.40;;;;;;;5.37;99.77;92407.94;4840599;29;20081;-66
2021/12/28 09:20:37;;;;;;;2.20;1.10;;;;;;;5.50;99.24;92412.75;4841506;29;20053;-67
2021/12/28 09:23:09;;;;;;;3.15;1.20;;;;;;;5.55;99.72;92423.91;4841427;29;20057;-66
2021/12/28 09:25:37;;;;;;;2.60;1.10;;;;;;;5.57;99.28;92418.03;4842084;29;20038;-68
2021/12/28 09:28:04;;;;;;;4.28;1.20;;;;;;;5.54;98.98;92419.66;4841388;29;20050;-68
2021/12/28 09:30:31;;;;;;;2.43;0.87;;;;;;;5.56;98.77;92424.69;4838878;29;20921;-67
2021/12/28 09:32:58;;;;;;;2.10;0.90;;;;;;;5.60;98.56;92426.13;4840878;29;20061;-67
2021/12/28 09:35:25;;;;;;;2.10;1.00;;;;;;;5.64;98.43;92425.31;4840969;29;20052;-66
2021/12/28 09:37:51;;;;;;;4.28;1.33;;;;;;;5.78;97.92;92433.16;4841217;29;20056;-67
2021/12/28 09:40:19;;;;;;;2.17;0.85;;;;;;;5.83;97.36;92426.44;4840748;29;20046;-67
2021/12/28 09:42:46;;;;;;;3.50;1.20;;;;;;;5.82;97.96;92428.41;4841108;29;20056;-67
2021/12/28 09:45:14;;;;;;;2.40;0.90;;;;;;;5.90;97.70;92446.13;4840410;29;20053;-66
2021/12/28 09:47:42;;;;;;;8.23;2.30;;;;;;;6.08;97.53;92434.88;4840673;29;20125;-67
2021/12/28 09:50:12;;;;;;;6.05;1.52;;;;;;;6.06;97.53;92437.25;4840152;29;20049;-66
2021/12/28 09:52:39;;;;;;;2.88;1.00;;;;;;;6.06;97.70;92429.09;4840648;29;20054;-66
2021/12/28 09:55:07;;;;;;;4.10;1.20;;;;;;;6.16;97.81;92435.50;4839878;29;20072;-66
2021/12/28 09:57:35;;;;;;;4.97;1.40;;;;;;;6.08;97.66;92440.31;4840626;29;20050;-66
2021/12/28 10:00:04;;;;;;;3.38;1.25;;;;;;;6.05;97.98;92430.25;4840693;29;20057;-67
2021/12/28 10:02:31;;;;;;;2.10;0.90;;;;;;;6.02;98.34;92435.78;4845176;29;20046;-68
2021/12/28 10:05:04;;;;;;;2.17;1.20;;;;;;;6.06;98.21;92428.34;4809689;29;20481;-66
2021/12/28 10:07:34;;;;;;;2.43;1.27;;;;;;;6.14;98.30;92438.63;4821704;29;20852;-67
2021/12/28 10:10:04;;;;;;;2.58;1.02;;;;;;;6.10;98.51;92439.91;4835795;29;20402;-66
2021/12/28 10:12:36;;;;;;;3.50;1.20;;;;;;;6.44;96.88;92431.34;4821458;29;20911;-67
2021/12/28 10:15:08;;;;;;;3.40;1.23;;;;;;;6.47;96.58;92435.16;4821989;29;20061;-67
2021/12/28 10:17:38;;;;;;;2.47;1.10;;;;;;;6.46;96.96;92428.97;4821197;29;20093;-67
2021/12/28 10:20:19;;;;;;;3.30;1.03;;;;;;;6.40;96.91;92438.84;4821795;29;20054;-67
2021/12/28 10:22:52;;;;;;;3.72;1.00;;;;;;;6.57;96.35;92434.16;4850096;29;20076;-67
2021/12/28 10:25:40;;;;;;;2.40;0.95;;;;;;;6.83;94.82;92432.34;4821227;29;20057;-67
2021/12/28 10:28:13;;;;;;;3.10;1.10;;;;;;;6.75;95.12;92422.81;4820173;29;20462;-67
2021/12/28 10:30:50;;;;;;;2.35;0.80;;;;;;;6.67;95.34;92424.19;4824763;29;20050;-67
2021/12/28 10:33:21;;;;;;;2.10;0.90;;;;;;;6.67;95.54;92421.47;4839418;29;20042;-67
2021/12/28 10:36:10;;;;;;;2.45;1.10;;;;;;;6.65;95.74;92416.44;4840188;29;20048;-67
2021/12/28 10:38:45;;;;;;;3.80;1.15;;;;;;;6.61;95.90;92421.19;4839228;29;21548;-67
2021/12/28 10:41:15;;;;;;;2.70;1.00;;;;;;;6.58;96.09;92430.25;4838382;29;20038;-66
2021/12/28 10:43:46;;;;;;;2.53;1.17;;;;;;;6.72;96.31;92429.09;4840139;29;20053;-67
2021/12/28 10:46:16;;;;;;;2.87;1.10;;;;;;;6.71;95.89;92422.88;4839627;29;20412;-67
2021/12/28 10:48:56;;;;;;;5.28;1.40;;;;;;;6.83;95.27;92426.88;4839766;29;20066;-67
2021/12/28 10:51:28;;;;;;;6.10;2.40;;;;;;;6.76;95.99;92424.31;4839319;29;20064;-66
2021/12/28 10:56:46;;;;;;;4.03;1.60;;;;;;;6.81;95.90;92421.09;4838634;29;20408;-67
2021/12/28 10:59:14;;;;;;;4.20;1.77;;;;;;;6.78;95.95;92428.19;4838983;29;20102;-67
2021/12/28 11:01:42;;;;;;;4.45;1.83;;;;;;;6.87;96.19;92422.09;4839811;29;20496;-67
2021/12/28 11:04:12;;;;;;;6.50;2.33;;;;;;;7.02;95.56;92417.03;4815470;29;20102;-67
2021/12/28 11:06:48;;;;;;;4.38;2.35;;;;;;;7.12;95.57;92421.47;4828159;29;20076;-67
2021/12/28 11:09:24;;;;;;;12.75;6.95;;;;;;;7.19;95.20;92412.34;4838714;29;20049;-66
2021/12/28 11:11:56;;;;;;;10.73;5.73;;;;;;;7.26;94.10;92420.31;4839514;29;20050;-67
2021/12/28 11:14:29;;;;;;;3.85;1.70;;;;;;;7.27;94.70;92423.81;4839081;29;20054;-68
2021/12/28 11:17:02;;;;;;;9.18;6.53;;;;;;;7.42;93.93;92421.47;4839527;29;20042;-67
2021/12/28 11:19:34;;;;;;;7.90;2.83;;;;;;;7.74;93.13;92413.13;4839231;29;20045;-67
2021/12/28 11:22:04;;;;;;;3.35;1.90;;;;;;;7.96;92.69;92418.75;4839328;29;20053;-67
2021/12/28 11:24:33;;;;;;;3.37;1.30;;;;;;;8.53;90.13;92420.97;4838498;29;20757;-67
2021/12/28 11:27:03;;;;;;;2.28;0.85;;;;;;;8.76;87.70;92406.94;4839057;29;20058;-67
2021/12/28 11:29:50;;;;;;;2.72;1.00;;;;;;;9.07;87.32;92398.09;4838495;29;20544;-67
2021/12/28 11:32:19;;;;;;;1.88;0.77;;;;;;;9.23;85.40;92390.94;4838176;29;20082;-67
2021/12/28 11:34:47;;;;;;;2.00;0.80;;;;;;;9.23;85.03;92388.94;4839586;29;20408;-68
2021/12/28 11:37:20;;;;;;;3.00;0.93;;;;;;;9.34;84.77;92383.13;4838764;29;20042;-68
2021/12/28 11:39:50;;;;;;;2.17;1.00;;;;;;;8.73;86.70;92382.44;4853375;29;20048;-68
2021/12/28 11:42:20;;;;;;;2.42;0.88;;;;;;;8.66;86.85;92383.44;4838568;29;20055;-67
2021/12/28 11:44:47;;;;;;;2.00;0.80;;;;;;;8.62;87.66;92374.59;4839408;29;20042;-68